createdAt,value
2023-02-17T00:02:23.795Z,67.40
2023-02-17T00:04:59.035Z,72.80
2023-02-17T00:10:35.435Z,54.20
2023-02-17T00:13:08.345Z,54.60
2023-02-17T00:15:39.470Z,59.30
2023-02-17T00:18:08.640Z,55.70
2023-02-17T00:23:07.655Z,46.30
2023-02-17T00:25:45.696Z,43.70
2023-02-17T00:28:19.658Z,41.10
2023-02-17T00:30:51.121Z,52.20
2023-02-17T00:33:29.788Z,49.30
2023-02-17T00:36:35.633Z,52.00
2023-02-17T00:39:09.176Z,50.60
2023-02-17T00:41:41.149Z,51.50
2023-02-17T00:44:25.416Z,41.20
2023-02-17T00:46:58.043Z,39.20
2023-02-17T00:49:32.913Z,55.80
2023-02-17T00:52:02.543Z,53.50
2023-02-17T00:54:31.008Z,52.10
2023-02-17T00:56:59.920Z,40.70
2023-02-17T00:59:39.150Z,38.80
2023-02-17T01:02:11.605Z,43.10
2023-02-17T01:04:40.499Z,40.40
2023-02-17T01:07:15.821Z,55.60
2023-02-17T01:09:49.070Z,40.10
2023-02-17T01:12:19.373Z,38.70
2023-02-17T01:14:50.821Z,42.00
2023-02-17T01:17:20.623Z,40.00
2023-02-17T01:20:11.122Z,36.10
2023-02-17T01:22:48.402Z,44.60
2023-02-17T01:25:21.323Z,36.70
2023-02-17T01:27:53.660Z,38.00
2023-02-17T01:30:38.497Z,33.20
2023-02-17T01:33:18.228Z,39.40
2023-02-17T01:35:50.675Z,35.20
2023-02-17T01:38:20.576Z,28.70
2023-02-17T01:41:05.990Z,36.40
2023-02-17T01:44:04.797Z,34.50
2023-02-17T01:47:01.002Z,35.20
2023-02-17T01:49:53.042Z,43.30
2023-02-17T01:52:46.593Z,36.70
2023-02-17T01:55:21.952Z,54.10
2023-02-17T01:57:59.967Z,47.70
2023-02-17T02:00:40.163Z,43.50
2023-02-17T02:03:23.681Z,42.80
2023-02-17T02:06:00.351Z,35.90
2023-02-17T02:08:35.216Z,42.20
2023-02-17T02:11:04.856Z,39.60
2023-02-17T02:13:40.468Z,44.30
2023-02-17T02:16:38.395Z,41.90
2023-02-17T02:19:36.081Z,37.10
2023-02-17T02:22:44.180Z,34.70
2023-02-17T02:25:34.325Z,33.60
2023-02-17T02:28:48.737Z,29.60
2023-02-17T02:31:54.531Z,34.40
2023-02-17T02:34:39.198Z,33.10
2023-02-17T02:37:25.766Z,29.70
2023-02-17T02:40:08.638Z,30.70
2023-02-17T02:42:43.656Z,35.30
2023-02-17T02:45:28.888Z,41.80
2023-02-17T02:48:01.155Z,33.50
2023-02-17T02:51:02.467Z,38.00
2023-02-17T02:54:01.993Z,29.60
2023-02-17T02:56:42.480Z,28.60
2023-02-17T02:59:34.930Z,32.00
2023-02-17T03:02:21.883Z,27.60
2023-02-17T03:05:03.461Z,36.00
2023-02-17T03:08:02.022Z,32.20
2023-02-17T03:10:33.537Z,31.00
2023-02-17T03:13:09.234Z,39.20
2023-02-17T03:15:41.292Z,39.90
2023-02-17T03:18:11.170Z,36.30
2023-02-17T03:20:58.890Z,33.50
2023-02-17T03:23:39.895Z,43.50
2023-02-17T03:29:10.721Z,38.50
2023-02-17T03:31:49.918Z,40.00
2023-02-17T03:34:31.701Z,46.10
2023-02-17T03:37:13.868Z,45.70
2023-02-17T03:39:42.359Z,40.50
2023-02-17T03:42:11.935Z,47.40
2023-02-17T03:44:54.562Z,39.00
2023-02-17T03:47:24.294Z,39.50
2023-02-17T03:49:53.962Z,38.60
2023-02-17T03:52:23.882Z,41.70
2023-02-17T03:54:53.517Z,35.50
2023-02-17T03:57:26.492Z,42.70
2023-02-17T04:00:03.932Z,41.00
2023-02-17T04:02:47.929Z,51.70
2023-02-17T04:05:16.725Z,39.10
2023-02-17T04:07:46.005Z,37.90
2023-02-17T04:10:19.252Z,41.10
2023-02-17T04:12:48.850Z,40.30
2023-02-17T04:15:21.160Z,43.80
2023-02-17T04:23:37.156Z,40.20
2023-02-17T04:26:33.269Z,34.10
2023-02-17T04:31:57.676Z,36.10
2023-02-17T04:34:29.570Z,37.60
2023-02-17T04:36:58.891Z,36.00
2023-02-17T04:39:53.995Z,39.50
2023-02-17T04:47:43.852Z,38.30
2023-02-17T04:50:16.100Z,38.20
2023-02-17T04:52:46.742Z,39.50
2023-02-17T04:55:21.405Z,47.70
2023-02-17T04:57:59.982Z,38.70
2023-02-17T05:00:40.624Z,39.10
2023-02-17T05:03:19.783Z,38.30
2023-02-17T05:05:53.960Z,44.00
2023-02-17T05:08:22.629Z,53.40
2023-02-17T05:11:17.998Z,44.80
2023-02-17T05:13:46.673Z,43.70
2023-02-17T05:16:15.154Z,47.00
2023-02-17T05:18:43.880Z,38.00
2023-02-17T05:21:12.123Z,46.10
2023-02-17T05:23:42.361Z,45.10
2023-02-17T05:26:11.188Z,43.50
2023-02-17T05:28:39.470Z,49.50
2023-02-17T05:31:08.213Z,51.80
2023-02-17T05:33:37.021Z,40.20
2023-02-17T05:36:07.893Z,41.10
2023-02-17T05:38:37.252Z,42.20
2023-02-17T05:41:06.336Z,41.60
2023-02-17T05:43:34.806Z,42.80
2023-02-17T05:46:04.897Z,42.10
2023-02-17T05:51:02.199Z,37.10
2023-02-17T05:53:30.634Z,34.50
2023-02-17T05:56:04.585Z,48.90
2023-02-17T05:58:33.181Z,57.60
2023-02-17T06:01:01.424Z,57.70
2023-02-17T06:06:07.742Z,49.80
2023-02-17T06:08:36.102Z,50.10
2023-02-17T06:11:04.776Z,53.70
2023-02-17T06:13:33.182Z,42.80
2023-02-17T06:18:47.987Z,53.40
2023-02-17T06:21:16.121Z,43.20
2023-02-17T06:23:44.455Z,39.80
2023-02-17T06:26:12.599Z,39.30
2023-02-17T06:28:40.781Z,42.00
2023-02-17T06:31:09.040Z,39.80
2023-02-17T06:33:37.331Z,35.20
2023-02-17T06:36:06.605Z,40.50
2023-02-17T06:38:35.117Z,43.20
2023-02-17T06:41:03.702Z,56.60
2023-02-17T06:43:32.068Z,48.40
2023-02-17T06:46:00.628Z,47.80
2023-02-17T06:48:29.163Z,47.40
2023-02-17T06:51:17.511Z,36.90
2023-02-17T06:53:46.230Z,37.50
2023-02-17T06:56:16.820Z,59.00
2023-02-17T06:58:45.195Z,53.80
2023-02-17T07:01:22.852Z,54.60
2023-02-17T07:03:51.365Z,42.40
2023-02-17T07:06:28.514Z,41.70
2023-02-17T07:08:56.674Z,53.70
2023-02-17T07:11:26.370Z,41.20
2023-02-17T07:13:54.702Z,41.50
2023-02-17T07:16:23.219Z,44.70
2023-02-17T07:19:11.518Z,29.80
2023-02-17T07:21:40.549Z,46.90
2023-02-17T07:24:09.314Z,50.30
2023-02-17T07:26:56.385Z,40.40
2023-02-17T07:29:24.687Z,43.10
2023-02-17T07:31:53.193Z,58.10
2023-02-17T07:34:21.738Z,53.40
2023-02-17T07:36:50.366Z,56.00
2023-02-17T07:39:18.635Z,61.40
2023-02-17T07:41:46.939Z,57.90
2023-02-17T07:44:19.691Z,41.80
2023-02-17T07:46:58.688Z,43.60
2023-02-17T07:49:27.104Z,46.90
2023-02-17T07:52:07.571Z,49.80
2023-02-17T07:54:35.817Z,61.80
2023-02-17T07:57:05.284Z,55.00
2023-02-17T07:59:36.103Z,54.70
2023-02-17T08:02:04.266Z,43.20
2023-02-17T08:04:33.029Z,52.10
2023-02-17T08:07:01.320Z,65.00
2023-02-17T08:09:48.446Z,78.50
2023-02-17T08:12:37.310Z,73.60
2023-02-17T08:15:08.300Z,65.00
2023-02-17T08:17:39.096Z,70.30
2023-02-17T08:20:09.323Z,57.90
2023-02-17T08:22:37.720Z,64.60
2023-02-17T08:25:06.509Z,77.70
2023-02-17T08:27:34.940Z,58.50
2023-02-17T08:30:11.199Z,70.70
2023-02-17T08:32:39.520Z,63.40
2023-02-17T08:35:08.061Z,75.70
2023-02-17T08:37:36.456Z,58.10
2023-02-17T08:40:13.924Z,55.50
2023-02-17T08:42:44.854Z,48.00
2023-02-17T08:45:15.625Z,43.50
2023-02-17T08:47:51.532Z,36.80
2023-02-17T08:50:20.354Z,43.20
2023-02-17T08:52:48.652Z,47.60
2023-02-17T08:55:23.979Z,60.70
2023-02-17T08:57:57.067Z,60.20
2023-02-17T09:00:25.613Z,55.10
2023-02-17T09:02:53.852Z,64.90
2023-02-17T09:05:22.406Z,70.90
2023-02-17T09:07:51.453Z,52.80
2023-02-17T09:10:19.709Z,56.10
2023-02-17T09:15:30.220Z,56.60
2023-02-17T09:17:58.710Z,52.20
2023-02-17T09:20:27.487Z,54.40
2023-02-17T09:23:04.381Z,52.10
2023-02-17T09:25:33.071Z,46.70
2023-02-17T09:28:01.423Z,52.10
2023-02-17T09:30:31.239Z,50.90
2023-02-17T09:33:01.764Z,49.60
2023-02-17T09:35:39.650Z,45.50
2023-02-17T09:38:10.438Z,48.10
2023-02-17T09:40:47.464Z,46.20
2023-02-17T09:43:19.053Z,47.70
2023-02-17T09:45:52.563Z,51.80
2023-02-17T09:48:23.657Z,42.50
2023-02-17T09:50:56.141Z,46.70
2023-02-17T09:53:30.611Z,46.60
2023-02-17T09:56:03.304Z,41.60
2023-02-17T09:58:54.157Z,49.90
2023-02-17T10:01:34.721Z,57.70
2023-02-17T10:06:49.757Z,43.60
2023-02-17T10:09:31.314Z,39.20
2023-02-17T10:12:39.952Z,39.70
2023-02-17T10:15:19.710Z,30.90
2023-02-17T10:18:10.999Z,30.50
2023-02-17T10:20:50.370Z,37.20
2023-02-17T10:23:29.366Z,31.30
2023-02-17T10:26:26.276Z,29.70
2023-02-17T10:29:14.399Z,32.40
2023-02-17T10:31:45.895Z,32.00
2023-02-17T10:34:37.578Z,27.00
2023-02-17T10:37:18.760Z,25.90
2023-02-17T10:40:21.714Z,25.50
2023-02-17T10:42:55.265Z,27.80
2023-02-17T10:45:51.423Z,25.60
2023-02-17T10:48:31.752Z,23.70
2023-02-17T10:51:31.849Z,25.70
2023-02-17T10:54:36.167Z,26.00
2023-02-17T10:57:11.290Z,25.90
2023-02-17T10:59:43.124Z,27.40
2023-02-17T11:02:23.394Z,21.90
2023-02-17T11:04:55.255Z,23.80
2023-02-17T11:07:47.791Z,25.50
2023-02-17T11:10:33.138Z,23.80
2023-02-17T11:13:03.888Z,25.70
2023-02-17T11:18:26.064Z,23.10
2023-02-17T11:21:11.831Z,25.90
2023-02-17T11:24:00.111Z,23.70
2023-02-17T11:26:40.124Z,25.50
2023-02-17T11:29:40.690Z,23.70
2023-02-17T11:32:13.940Z,23.10
2023-02-17T11:34:44.543Z,22.40
2023-02-17T11:37:21.423Z,25.00
2023-02-17T11:39:53.703Z,24.20
2023-02-17T11:42:28.372Z,23.80
2023-02-17T11:45:21.697Z,25.70
2023-02-17T11:48:02.027Z,25.50
2023-02-17T11:50:42.010Z,22.20
2023-02-17T11:53:29.467Z,22.20
2023-02-17T11:56:15.887Z,24.80
2023-02-17T11:59:12.566Z,28.20
2023-02-17T12:02:03.954Z,22.30
2023-02-17T12:04:38.488Z,24.20
2023-02-17T12:07:25.682Z,28.50
2023-02-17T12:10:23.950Z,23.50
2023-02-17T12:13:01.694Z,25.80
2023-02-17T12:15:45.183Z,27.30
2023-02-17T12:18:24.446Z,25.50
2023-02-17T12:22:01.651Z,27.20
2023-02-17T12:24:48.785Z,24.20
2023-02-17T12:27:36.094Z,27.10
2023-02-17T12:30:24.626Z,31.40
2023-02-17T12:33:25.370Z,30.90
2023-02-17T12:35:57.829Z,28.80
2023-02-17T12:38:32.967Z,30.70
2023-02-17T12:41:36.694Z,32.80
2023-02-17T12:44:26.800Z,30.50
2023-02-17T12:47:25.149Z,28.20
2023-02-17T12:50:40.221Z,27.60
2023-02-17T12:53:18.637Z,26.90
2023-02-17T12:55:55.497Z,28.60
2023-02-17T12:58:29.064Z,26.20
2023-02-17T13:01:06.173Z,27.80
2023-02-17T13:03:36.758Z,32.60
2023-02-17T13:06:32.074Z,29.20
2023-02-17T13:09:21.112Z,30.60
2023-02-17T13:11:49.516Z,30.10
2023-02-17T13:14:39.161Z,33.30
2023-02-17T13:17:41.877Z,29.40
2023-02-17T13:20:10.125Z,26.00
2023-02-17T13:22:46.530Z,29.20
2023-02-17T13:28:34.613Z,27.00
2023-02-17T13:31:29.382Z,28.80
2023-02-17T13:34:00.711Z,27.20
2023-02-17T13:36:31.952Z,28.50
2023-02-17T13:39:04.593Z,30.30
2023-02-17T13:41:57.354Z,30.10
2023-02-17T13:44:29.050Z,29.90
2023-02-17T13:47:14.979Z,32.10
2023-02-17T13:50:01.563Z,31.00
2023-02-17T13:52:42.258Z,31.00
2023-02-17T13:55:23.324Z,32.80
2023-02-17T13:57:56.405Z,33.90
2023-02-17T14:00:32.022Z,33.50
2023-02-17T14:03:22.584Z,30.70
2023-02-17T14:05:59.006Z,35.30
2023-02-17T14:08:42.797Z,31.10
2023-02-17T14:11:38.792Z,30.90
2023-02-17T14:14:07.868Z,29.00
2023-02-17T14:16:41.360Z,31.90
2023-02-17T14:19:17.081Z,31.20
2023-02-17T14:21:59.269Z,30.70
2023-02-17T14:24:29.853Z,36.80
2023-02-17T14:27:09.396Z,34.70
2023-02-17T14:29:46.744Z,38.60
2023-02-17T14:32:35.013Z,45.10
2023-02-17T14:35:12.410Z,33.80
2023-02-17T14:37:44.288Z,37.20
2023-02-17T14:40:18.892Z,44.30
2023-02-17T14:43:47.982Z,45.80
2023-02-17T14:46:18.860Z,39.20
2023-02-17T14:49:02.829Z,33.10
2023-02-17T14:51:36.812Z,37.20
2023-02-17T14:54:13.785Z,40.50
2023-02-17T14:56:47.754Z,38.00
2023-02-17T14:59:14.720Z,37.60
2023-02-17T15:01:44.719Z,41.60
2023-02-17T15:04:11.951Z,36.90
2023-02-17T15:06:42.985Z,41.10
2023-02-17T15:09:16.156Z,42.00
2023-02-17T15:11:48.348Z,38.10
2023-02-17T15:14:19.308Z,42.00
2023-02-17T15:16:47.680Z,35.60
2023-02-17T15:19:26.150Z,44.60
2023-02-17T15:21:53.655Z,46.60
2023-02-17T15:24:28.881Z,38.40
2023-02-17T15:26:56.852Z,35.60
2023-02-17T15:29:27.052Z,36.10
2023-02-17T15:31:56.240Z,38.40
2023-02-17T15:34:31.991Z,39.40
2023-02-17T15:37:09.526Z,41.70
2023-02-17T15:39:36.472Z,41.90
2023-02-17T15:42:11.197Z,40.90
2023-02-17T15:44:50.081Z,35.70
2023-02-17T15:47:20.542Z,39.00
2023-02-17T15:49:48.540Z,39.50
2023-02-17T15:52:15.802Z,40.10
2023-02-17T15:54:48.204Z,42.50
2023-02-17T15:57:41.659Z,43.70
2023-02-17T16:00:22.013Z,48.30
2023-02-17T16:02:54.156Z,37.70
2023-02-17T16:05:29.634Z,53.10
2023-02-17T16:08:06.189Z,46.40
2023-02-17T16:10:34.582Z,44.70
2023-02-17T16:13:04.016Z,47.90
2023-02-17T16:15:36.967Z,47.80
2023-02-17T16:18:23.579Z,48.30
2023-02-17T16:20:57.080Z,48.70
2023-02-17T16:23:33.493Z,50.50
2023-02-17T16:26:02.850Z,45.30
2023-02-17T16:28:33.323Z,41.50
2023-02-17T16:31:12.082Z,46.70
2023-02-17T16:33:42.274Z,49.70
2023-02-17T16:36:23.523Z,51.50
2023-02-17T16:38:50.971Z,46.00
2023-02-17T16:41:20.068Z,44.70
2023-02-17T16:43:47.575Z,53.10
2023-02-17T16:46:31.589Z,52.60
2023-02-17T16:49:00.784Z,49.40
2023-02-17T16:51:27.630Z,57.30
2023-02-17T16:53:55.625Z,50.70
2023-02-17T16:56:33.834Z,55.00
2023-02-17T16:59:00.857Z,60.90
2023-02-17T17:01:27.701Z,55.20
2023-02-17T17:03:54.696Z,58.60
2023-02-17T17:06:23.116Z,63.10
2023-02-17T17:08:50.438Z,58.10
2023-02-17T17:11:21.456Z,56.20
2023-02-17T17:13:49.374Z,53.80
2023-02-17T17:16:25.530Z,57.20
2023-02-17T17:18:55.347Z,49.70
2023-02-17T17:21:22.275Z,54.00
2023-02-17T17:23:50.396Z,55.40
2023-02-17T17:26:40.311Z,58.40
2023-02-17T17:29:07.937Z,63.30
2023-02-17T17:31:35.030Z,63.80
2023-02-17T17:34:01.926Z,63.40
2023-02-17T17:36:38.830Z,57.30
2023-02-17T17:39:15.907Z,49.60
2023-02-17T17:41:45.462Z,47.20
2023-02-17T17:44:12.551Z,47.00
2023-02-17T17:46:54.168Z,48.40
2023-02-17T17:49:21.094Z,43.40
2023-02-17T17:51:48.113Z,46.10
2023-02-17T17:54:14.964Z,53.30
2023-02-17T17:56:44.671Z,54.80
2023-02-17T17:59:31.175Z,59.80
2023-02-17T18:02:00.622Z,64.30
2023-02-17T18:04:27.637Z,60.10
2023-02-17T18:06:55.641Z,63.90
2023-02-17T18:09:32.405Z,60.80
2023-02-17T18:12:07.213Z,53.10
2023-02-17T18:14:40.611Z,63.10
2023-02-17T18:17:15.836Z,66.00
2023-02-17T18:19:46.458Z,64.50
2023-02-17T18:22:14.166Z,63.70
2023-02-17T18:24:41.021Z,58.50
2023-02-17T18:27:07.967Z,68.20
2023-02-17T18:29:35.057Z,71.40
2023-02-17T18:32:02.110Z,60.90
2023-02-17T18:34:29.011Z,57.60
2023-02-17T18:36:59.039Z,66.50
2023-02-17T18:39:26.033Z,67.10
2023-02-17T18:41:53.077Z,70.80
2023-02-17T18:44:20.235Z,74.60
2023-02-17T18:46:47.168Z,73.30
2023-02-17T18:49:14.093Z,82.70
2023-02-17T18:51:41.720Z,87.70
2023-02-17T18:54:12.369Z,80.10
2023-02-17T18:56:39.814Z,67.70
2023-02-17T18:59:07.541Z,69.60
2023-02-17T19:01:38.890Z,71.90
2023-02-17T19:04:09.136Z,76.10
2023-02-17T19:06:36.223Z,75.10
2023-02-17T19:09:10.905Z,59.20
2023-02-17T19:11:42.048Z,71.30
2023-02-17T19:14:09.067Z,52.70
2023-02-17T19:16:38.271Z,63.10
2023-02-17T19:19:05.632Z,59.60
2023-02-17T19:21:32.676Z,60.90
2023-02-17T19:24:00.971Z,71.20
2023-02-17T19:26:28.000Z,70.20
2023-02-17T19:28:55.227Z,65.40
2023-02-17T19:31:23.111Z,60.10
2023-02-17T19:33:49.987Z,68.40
2023-02-17T19:36:20.507Z,57.60
2023-02-17T19:41:15.880Z,62.70
2023-02-17T19:43:43.786Z,52.70
2023-02-17T19:46:13.220Z,66.50
2023-02-17T19:48:41.403Z,70.70
2023-02-17T19:51:11.803Z,58.00
2023-02-17T19:56:22.719Z,54.90
2023-02-17T19:58:50.145Z,68.20
2023-02-17T20:01:19.701Z,62.90
2023-02-17T20:03:47.175Z,61.90
2023-02-17T20:06:16.764Z,62.80
2023-02-17T20:08:46.006Z,68.60
2023-02-17T20:11:14.629Z,50.30
2023-02-17T20:13:46.240Z,44.90
2023-02-17T20:16:19.815Z,72.50
2023-02-17T20:19:02.160Z,62.90
2023-02-17T20:21:31.915Z,52.30
2023-02-17T20:23:59.030Z,63.90
2023-02-17T20:26:29.404Z,61.90
2023-02-17T20:31:25.426Z,50.10
2023-02-17T20:33:53.174Z,68.50
2023-02-17T20:36:21.674Z,75.20
2023-02-17T20:38:49.392Z,69.30
2023-02-17T20:41:19.355Z,97.30
2023-02-17T20:43:46.459Z,79.80
2023-02-17T20:46:25.503Z,56.10
2023-02-17T20:48:53.444Z,58.00
2023-02-17T20:51:20.426Z,56.50
2023-02-17T20:53:47.196Z,51.90
2023-02-17T20:56:17.587Z,48.90
2023-02-17T21:01:11.832Z,53.60
2023-02-17T21:03:38.753Z,51.20
2023-02-17T21:06:18.358Z,62.00
2023-02-17T21:08:45.721Z,61.40
2023-02-17T21:11:12.598Z,53.60
2023-02-17T21:13:39.467Z,56.40
2023-02-17T21:16:06.717Z,56.00
2023-02-17T21:18:35.264Z,63.10
2023-02-17T21:21:02.067Z,59.20
2023-02-17T21:23:28.803Z,57.80
2023-02-17T21:25:55.625Z,63.20
2023-02-17T21:28:22.483Z,72.00
2023-02-17T21:30:49.459Z,60.40
2023-02-17T21:33:16.262Z,64.00
2023-02-17T21:35:43.112Z,62.90
2023-02-17T21:38:11.569Z,62.70
2023-02-17T21:40:38.385Z,65.30
2023-02-17T21:43:23.580Z,59.10
2023-02-17T21:45:50.254Z,67.50
2023-02-17T21:48:17.144Z,63.00
2023-02-17T21:50:44.217Z,59.40
2023-02-17T21:53:11.102Z,55.20
2023-02-17T21:55:38.107Z,57.20
2023-02-17T21:58:04.810Z,57.20
2023-02-17T22:00:31.717Z,55.30
2023-02-17T22:02:58.809Z,52.50
2023-02-17T22:05:30.258Z,47.30
2023-02-17T22:07:57.115Z,49.40
2023-02-17T22:10:24.251Z,50.60
2023-02-17T22:12:52.890Z,52.20
2023-02-17T22:15:19.790Z,48.70
2023-02-17T22:18:04.001Z,45.80
2023-02-17T22:20:31.013Z,49.50
2023-02-17T22:22:57.791Z,43.10
2023-02-17T22:25:24.711Z,47.80
2023-02-17T22:27:51.545Z,59.40
2023-02-17T22:30:18.434Z,62.40
2023-02-17T22:32:45.298Z,61.90
2023-02-17T22:35:14.484Z,74.90
2023-02-17T22:37:41.324Z,60.60
2023-02-17T22:40:08.566Z,65.30
2023-02-17T22:42:35.241Z,72.10
2023-02-17T22:45:02.139Z,72.30
2023-02-17T22:47:28.910Z,70.40
2023-02-17T22:49:55.822Z,69.20
2023-02-17T22:52:22.828Z,68.10
2023-02-17T22:54:49.556Z,67.40
2023-02-17T22:57:16.300Z,74.30
2023-02-17T22:59:43.112Z,68.30
2023-02-17T23:02:09.908Z,74.10
2023-02-17T23:04:36.823Z,66.00
2023-02-17T23:07:03.695Z,75.20
2023-02-17T23:09:30.523Z,68.00
2023-02-17T23:11:57.826Z,70.30
2023-02-17T23:14:36.196Z,75.90
2023-02-17T23:17:06.039Z,90.40
2023-02-17T23:19:32.949Z,78.20
2023-02-17T23:22:03.463Z,72.10
2023-02-17T23:26:59.718Z,68.80
2023-02-17T23:29:28.302Z,96.60
2023-02-17T23:31:55.465Z,79.00
2023-02-17T23:34:22.328Z,70.90
2023-02-17T23:36:49.694Z,76.80
2023-02-17T23:39:16.993Z,78.80
2023-02-17T23:41:44.180Z,82.70
2023-02-17T23:44:12.946Z,72.30
2023-02-17T23:46:45.055Z,83.30
2023-02-17T23:49:14.519Z,77.70
2023-02-17T23:51:41.983Z,85.70
2023-02-17T23:54:08.830Z,75.40
2023-02-17T23:56:37.311Z,73.20
2023-02-17T23:59:05.069Z,66.80
